Le Havre Octeville Airport

Airport
ICAO code: 
LFOH
IATA Code: 
LEH
Summary
ICAO Region: 
EUR
Territory: 
Location: 
, Haute-Normandie
Serving: 
Le Havre
Elevation: 
313 ft
Coordinates: 
Aerial View: 
49° 32' 2" N, 0° 5' 17.002" E
Metar
Observation
LFOH 020400Z AUTO 02014KT 9999 BKN026 BKN032 06/01 Q1008
Station
La Heve
Date/Time
2021-12-02 04:00:00
Wind direction
20°
Wind speed
14 kts
Lowest cloud amount
broken clouds
Temperature
6°C
Dew point
1°C
Humidity
70%
QNH
1008 hPa
Weather condition
n/a

Runways

Designator Length Width Surface Rops
5/23 2300 40 ASP No/No
Airport map: 
Aerial View: 

SKYbrary Partners:

Safety knowledge contributed by: